Time;durP1;ratioP1;P1;durP2;ratioP2;P2;SDS_P1;SDS_P2;PMS_P1;PMS_P2;Temp;Humidity;BMP_temperature;BMP_pressure;BME280_temperature;BME280_humidity;BME280_pressure;Samples;Min_cycle;Max_cycle;Signal;HPM_P1;HPM_P2
2022/09/15 00:00:29;;;;;;;9.75;8.80;;;;;;;14.42;70.95;98312.77;1757876;81;21004;-40
2022/09/15 00:02:56;;;;;;;10.88;9.75;;;;;;;14.39;70.98;98314.35;1757857;81;21145;-40
2022/09/15 00:05:23;;;;;;;12.23;9.35;;;;;;;14.37;71.05;98324.14;1757657;81;20976;-41
2022/09/15 00:07:50;;;;;;;14.28;9.25;;;;;;;14.31;71.32;98317.74;1757869;81;21000;-40
2022/09/15 00:10:18;;;;;;;10.08;8.58;;;;;;;14.30;71.18;98314.83;1757792;81;20972;-40
2022/09/15 00:12:45;;;;;;;13.65;9.28;;;;;;;14.35;70.68;98314.97;1757788;81;21072;-40
2022/09/15 00:15:13;;;;;;;11.78;9.30;;;;;;;14.36;70.55;98309.73;1757854;81;21082;-40
2022/09/15 00:17:41;;;;;;;10.53;9.13;;;;;;;14.35;70.64;98305.42;1757725;81;21898;-40
2022/09/15 00:20:09;;;;;;;11.90;9.93;;;;;;;14.34;70.41;98310.09;1757936;81;20969;-41
2022/09/15 00:22:35;;;;;;;11.48;10.32;;;;;;;14.29;70.65;98309.19;1758268;81;21072;-40
2022/09/15 00:25:03;;;;;;;10.40;9.20;;;;;;;14.25;70.82;98307.69;1724219;83;21092;-40
2022/09/15 00:27:31;;;;;;;9.78;8.78;;;;;;;14.20;70.84;98317.09;1708214;84;21986;-40
2022/09/15 00:29:58;;;;;;;12.10;9.50;;;;;;;14.24;70.42;98324.64;1708240;84;21035;-40
2022/09/15 00:32:25;;;;;;;10.80;9.63;;;;;;;14.24;70.61;98317.82;1708205;84;20906;-40
2022/09/15 00:34:52;;;;;;;11.20;10.10;;;;;;;14.22;70.77;98313.97;1716155;83;21331;-40
2022/09/15 00:37:19;;;;;;;13.90;10.10;;;;;;;14.17;70.58;98307.02;1716067;83;21045;-40
2022/09/15 00:39:45;;;;;;;11.93;10.05;;;;;;;14.13;70.62;98313.11;1716149;83;21975;-41
2022/09/15 00:42:16;;;;;;;10.63;9.48;;;;;;;14.09;70.41;98315.08;1716002;83;21554;-40
2022/09/15 00:44:56;;;;;;;9.20;8.25;;;;;;;14.06;70.93;98311.05;1716156;83;21008;-40
2022/09/15 00:47:31;;;;;;;10.03;9.03;;;;;;;14.11;70.82;98304.56;1715968;83;20958;-40
2022/09/15 00:50:12;;;;;;;13.48;10.30;;;;;;;14.12;70.92;98303.38;1716008;83;21084;-40
2022/09/15 00:52:49;;;;;;;11.83;9.43;;;;;;;14.10;70.58;98294.83;1718286;83;21136;-40
2022/09/15 00:55:21;;;;;;;13.80;9.73;;;;;;;14.07;70.55;98301.11;1717278;83;21015;-40
2022/09/15 00:58:05;;;;;;;11.50;9.68;;;;;;;14.02;70.81;98297.47;1719008;83;20932;-40
2022/09/15 01:00:32;;;;;;;10.05;8.95;;;;;;;14.05;70.66;98291.20;1718624;83;21032;-40
2022/09/15 01:02:59;;;;;;;11.70;9.33;;;;;;;14.13;70.97;98289.95;1718637;83;20997;-40
2022/09/15 01:05:43;;;;;;;13.50;10.75;;;;;;;14.19;71.21;98296.47;1718510;83;23181;-40
2022/09/15 01:08:18;;;;;;;14.03;11.40;;;;;;;14.21;71.52;98285.94;1718573;83;20968;-40
2022/09/15 01:10:45;;;;;;;12.28;11.00;;;;;;;14.24;71.83;98285.11;1718564;83;20989;-40
2022/09/15 01:13:13;;;;;;;13.45;10.20;;;;;;;14.26;72.16;98284.12;1718781;83;21095;-40
2022/09/15 01:16:19;;;;;;;18.15;10.55;;;;;;;14.27;72.57;98277.49;1718971;83;21027;-40
2022/09/15 01:19:36;;;;;;;12.33;10.70;;;;;;;14.37;72.56;98277.78;1718897;83;22148;-40
2022/09/15 01:22:33;;;;;;;11.75;10.35;;;;;;;14.43;72.88;98267.35;1644569;87;21057;-40
2022/09/15 01:25:21;;;;;;;12.55;11.12;;;;;;;14.40;73.30;98252.41;1718795;83;20908;-40
2022/09/15 01:28:14;;;;;;;11.48;9.25;;;;;;;14.40;73.56;98260.59;1718273;83;21080;-40
2022/09/15 01:30:50;;;;;;;11.78;9.25;;;;;;;14.44;73.80;98259.36;1697303;82;21364;-40
2022/09/15 01:33:22;;;;;;;12.28;9.73;;;;;;;14.54;73.86;98260.38;1747664;82;21137;-40
2022/09/15 01:36:02;;;;;;;13.60;11.00;;;;;;;14.61;73.93;98258.34;1730086;82;20988;-40
2022/09/15 01:39:04;;;;;;;12.33;10.48;;;;;;;14.65;73.91;98254.19;1733170;82;21547;-40
2022/09/15 01:41:41;;;;;;;12.73;8.65;;;;;;;14.65;73.90;98247.37;1748388;82;21020;-40
2022/09/15 01:44:14;;;;;;;13.93;9.25;;;;;;;14.73;73.78;98241.38;1746570;82;21074;-40
2022/09/15 01:46:46;;;;;;;14.43;10.23;;;;;;;14.81;73.46;98241.28;1748253;82;21854;-40
2022/09/15 01:49:17;;;;;;;14.18;10.05;;;;;;;14.85;73.38;98239.27;1748478;82;21541;-40
2022/09/15 01:51:44;;;;;;;11.20;10.10;;;;;;;14.87;73.40;98239.60;1748630;82;21507;-40
2022/09/15 01:54:11;;;;;;;10.85;8.78;;;;;;;14.84;73.45;98249.41;1786533;80;21636;-40
2022/09/15 01:56:38;;;;;;;11.90;9.15;;;;;;;14.85;73.46;98259.14;1786581;79;21538;-40
2022/09/15 01:59:06;;;;;;;12.40;10.05;;;;;;;14.87;73.36;98260.84;1786512;80;23154;-40
2022/09/15 02:01:46;;;;;;;13.32;10.08;;;;;;;14.90;73.32;98260.03;1786457;80;21448;-41
2022/09/15 02:04:22;;;;;;;11.93;10.58;;;;;;;14.93;73.27;98257.05;1767888;80;21507;-40
2022/09/15 02:07:05;;;;;;;12.98;10.60;;;;;;;14.95;73.00;98255.47;1783174;79;21057;-40
2022/09/15 02:09:53;;;;;;;12.95;9.88;;;;;;;14.94;72.91;98251.19;1780658;80;21095;-40
2022/09/15 02:12:37;;;;;;;11.88;9.60;;;;;;;14.96;72.79;98254.27;1779661;80;21165;-40
2022/09/15 02:15:17;;;;;;;11.18;9.78;;;;;;;14.98;72.64;98250.53;1780625;80;20941;-40
2022/09/15 02:17:46;;;;;;;13.38;9.95;;;;;;;14.98;72.62;98254.63;1780962;80;21008;-40
2022/09/15 02:20:33;;;;;;;11.50;9.58;;;;;;;14.94;72.56;98247.69;1780864;80;20913;-40
2022/09/15 02:23:07;;;;;;;12.35;9.23;;;;;;;14.85;72.85;98252.31;1738579;81;21108;-40
2022/09/15 02:25:41;;;;;;;10.85;8.58;;;;;;;14.86;73.04;98253.09;1755367;81;21216;-40
2022/09/15 02:28:10;;;;;;;15.85;9.48;;;;;;;14.90;73.19;98247.75;1755589;80;21016;-40
2022/09/15 02:30:40;;;;;;;11.68;9.55;;;;;;;14.93;73.16;98241.45;1755531;81;21052;-40
2022/09/15 02:33:09;;;;;;;13.20;9.25;;;;;;;14.93;73.10;98246.91;1755993;81;21024;-40
2022/09/15 02:35:35;;;;;;;12.73;9.88;;;;;;;14.83;73.14;98238.89;1755548;80;21598;-40
2022/09/15 02:38:04;;;;;;;12.75;8.88;;;;;;;14.83;73.14;98238.89;1755644;80;21943;-40
2022/09/15 02:40:31;;;;;;;9.80;8.80;;;;;;;14.81;73.47;98224.91;1755526;81;21037;-40
2022/09/15 02:43:04;;;;;;;10.58;8.18;;;;;;;14.85;73.52;98215.48;1755519;80;21036;-40
2022/09/15 02:45:31;;;;;;;10.70;9.15;;;;;;;14.85;73.53;98218.21;1755520;81;21037;-40
2022/09/15 02:47:57;;;;;;;10.93;9.13;;;;;;;14.86;73.68;98222.48;1755476;80;21096;-40
2022/09/15 02:50:27;;;;;;;12.43;9.28;;;;;;;14.87;73.69;98215.05;1755295;80;21085;-40
2022/09/15 02:52:54;;;;;;;10.75;8.50;;;;;;;14.81;73.82;98218.87;1757113;81;21027;-40
2022/09/15 02:55:22;;;;;;;13.05;8.60;;;;;;;14.81;74.02;98216.14;1757767;81;20972;-40
2022/09/15 02:57:49;;;;;;;12.20;8.78;;;;;;;14.86;73.92;98211.57;1758135;81;20921;-40
2022/09/15 03:00:18;;;;;;;13.53;9.58;;;;;;;14.91;73.90;98204.24;1758062;81;21527;-40
2022/09/15 03:02:48;;;;;;;10.68;9.23;;;;;;;14.91;73.91;98213.05;1758033;81;21134;-41
2022/09/15 03:05:17;;;;;;;13.43;9.48;;;;;;;14.88;73.85;98209.19;1757941;81;21515;-40
2022/09/15 03:07:44;;;;;;;10.35;8.20;;;;;;;14.85;73.83;98193.65;1739346;81;21032;-40
2022/09/15 03:10:12;;;;;;;10.68;8.58;;;;;;;14.87;73.75;98191.26;1757951;81;21559;-40
2022/09/15 03:12:44;;;;;;;10.65;9.35;;;;;;;14.97;73.44;98194.41;1757801;81;21033;-40
2022/09/15 03:15:13;;;;;;;12.20;9.55;;;;;;;15.01;73.26;98189.64;1757647;81;22090;-40
2022/09/15 03:17:41;;;;;;;10.45;8.93;;;;;;;15.06;73.23;98188.39;1757981;81;21725;-41
2022/09/15 03:20:10;;;;;;;11.95;9.10;;;;;;;15.06;73.05;98191.90;1757841;81;20988;-41
2022/09/15 03:22:36;;;;;;;8.55;7.72;;;;;;;15.05;72.79;98194.47;1757996;81;21063;-40
2022/09/15 03:25:06;;;;;;;10.45;8.48;;;;;;;15.08;72.68;98188.76;1758113;81;21872;-40
2022/09/15 03:27:33;;;;;;;10.55;7.60;;;;;;;15.13;72.57;98180.86;1758087;81;21149;-40
2022/09/15 03:30:04;;;;;;;10.45;8.48;;;;;;;15.16;72.37;98171.05;1757880;81;20921;-40
2022/09/15 03:32:31;;;;;;;11.00;8.30;;;;;;;15.17;72.35;98163.05;1758321;81;21020;-40
2022/09/15 03:34:58;;;;;;;9.30;8.20;;;;;;;15.16;72.28;98156.81;1758060;81;21495;-40
2022/09/15 03:37:25;;;;;;;8.95;7.65;;;;;;;15.16;72.28;98160.91;1758123;81;21444;-40
2022/09/15 03:39:51;;;;;;;8.58;6.90;;;;;;;15.22;72.23;98162.56;1757775;81;21156;-41
2022/09/15 03:42:19;;;;;;;9.13;8.23;;;;;;;15.29;72.10;98171.22;1757616;81;21538;-40
2022/09/15 03:44:46;;;;;;;13.22;8.30;;;;;;;15.32;72.10;98172.52;1757946;81;21000;-40
2022/09/15 03:47:13;;;;;;;11.78;8.30;;;;;;;15.33;72.16;98184.20;1757794;81;21579;-41
2022/09/15 03:49:39;;;;;;;11.78;8.98;;;;;;;15.33;72.31;98190.45;1758148;81;21803;-41
2022/09/15 03:52:06;;;;;;;9.60;8.13;;;;;;;15.30;72.53;98199.45;1757960;81;21146;-41
2022/09/15 03:54:34;;;;;;;10.03;7.90;;;;;;;15.31;72.58;98198.86;1757887;81;20985;-40
2022/09/15 03:57:01;;;;;;;8.60;7.70;;;;;;;15.35;72.56;98206.39;1758102;81;21542;-40
2022/09/15 03:59:27;;;;;;;10.13;9.13;;;;;;;15.33;72.55;98203.33;1757753;81;21650;-40
2022/09/15 04:01:54;;;;;;;11.05;9.23;;;;;;;15.27;72.62;98192.70;1757795;81;21028;-41
2022/09/15 04:04:21;;;;;;;10.08;8.90;;;;;;;15.23;72.57;98185.36;1757862;81;21515;-40
2022/09/15 04:06:48;;;;;;;9.73;8.05;;;;;;;15.16;72.79;98185.48;1757882;81;20961;-41
2022/09/15 04:09:15;;;;;;;8.33;7.47;;;;;;;15.11;73.00;98196.11;1757658;81;20984;-40
2022/09/15 04:11:42;;;;;;;9.08;8.15;;;;;;;15.16;73.16;98212.00;1757697;81;21637;-41
2022/09/15 04:14:09;;;;;;;9.75;8.75;;;;;;;15.16;73.25;98227.80;1757848;81;21598;-41
2022/09/15 04:16:37;;;;;;;10.43;8.35;;;;;;;15.11;73.43;98224.77;1757853;81;21229;-40
2022/09/15 04:19:04;;;;;;;14.45;8.13;;;;;;;15.05;73.66;98206.75;1757840;81;20992;-40
2022/09/15 04:21:32;;;;;;;8.60;7.67;;;;;;;15.06;73.71;98206.14;1757844;81;21013;-40
2022/09/15 04:23:59;;;;;;;8.93;8.03;;;;;;;15.09;73.88;98208.83;1757854;81;21099;-40
2022/09/15 04:26:31;;;;;;;11.55;8.38;;;;;;;15.15;74.04;98210.48;1757699;81;21090;-40
2022/09/15 04:28:59;;;;;;;8.83;7.92;;;;;;;15.19;74.17;98213.91;1757927;81;21217;-40
2022/09/15 04:31:26;;;;;;;9.68;8.20;;;;;;;15.21;74.16;98210.16;1757713;81;20960;-40
2022/09/15 04:33:54;;;;;;;9.50;7.53;;;;;;;15.25;74.12;98196.47;1757890;81;20972;-40
2022/09/15 04:36:23;;;;;;;8.68;7.47;;;;;;;15.32;73.93;98185.39;1757678;81;21008;-40
2022/09/15 04:38:50;;;;;;;10.72;7.40;;;;;;;15.29;73.97;98179.41;1758102;81;21016;-40
2022/09/15 04:41:17;;;;;;;9.98;8.35;;;;;;;15.22;74.25;98163.34;1757776;81;23149;-40
2022/09/15 04:43:45;;;;;;;7.85;7.05;;;;;;;15.21;74.58;98174.66;1757970;81;21048;-40
2022/09/15 04:46:12;;;;;;;9.03;7.35;;;;;;;15.25;74.63;98169.16;1758064;81;21037;-41
2022/09/15 04:48:40;;;;;;;8.55;7.42;;;;;;;15.34;74.61;98166.64;1786687;80;21011;-41
2022/09/15 04:51:11;;;;;;;9.18;8.05;;;;;;;15.42;74.42;98157.11;1789204;79;21034;-40
2022/09/15 04:53:39;;;;;;;8.90;8.00;;;;;;;15.42;74.48;98161.20;1788843;79;21831;-40
2022/09/15 04:56:08;;;;;;;11.30;8.23;;;;;;;15.41;74.62;98165.89;1789132;80;21667;-40
2022/09/15 04:58:41;;;;;;;12.03;7.00;;;;;;;15.41;74.61;98161.02;1789218;80;20959;-40
2022/09/15 05:01:12;;;;;;;10.38;7.05;;;;;;;15.44;74.68;98162.94;1788990;79;21054;-40
2022/09/15 05:03:39;;;;;;;10.18;7.85;;;;;;;15.52;74.47;98161.03;1788937;79;21854;-40
2022/09/15 05:06:09;;;;;;;13.95;7.80;;;;;;;15.55;74.57;98162.91;1788875;80;23084;-40
2022/09/15 05:08:36;;;;;;;8.70;7.85;;;;;;;15.58;74.59;98157.98;1788832;80;21583;-40
2022/09/15 05:11:06;;;;;;;10.25;7.65;;;;;;;15.57;74.66;98148.25;1789027;80;20994;-41
2022/09/15 05:13:34;;;;;;;10.32;6.97;;;;;;;15.65;74.75;98151.59;1789365;79;21034;-41
2022/09/15 05:16:10;;;;;;;10.10;7.65;;;;;;;15.76;74.57;98150.00;1789213;80;21022;-40
2022/09/15 05:18:38;;;;;;;9.75;7.65;;;;;;;15.81;74.39;98150.28;1789113;80;21146;-41
2022/09/15 05:21:06;;;;;;;10.63;8.43;;;;;;;15.85;74.41;98147.45;1789318;80;21466;-41
2022/09/15 05:23:34;;;;;;;10.45;7.37;;;;;;;15.88;74.45;98137.03;1789025;80;21525;-40
2022/09/15 05:26:03;;;;;;;8.08;7.17;;;;;;;15.94;74.15;98138.08;1789451;80;21301;-40
2022/09/15 05:28:33;;;;;;;11.30;7.40;;;;;;;16.01;73.86;98140.67;1785572;79;21070;-41
2022/09/15 05:30:59;;;;;;;10.45;7.70;;;;;;;16.03;73.72;98124.59;1789708;79;21091;-41
2022/09/15 05:33:26;;;;;;;9.90;8.08;;;;;;;16.02;73.65;98129.29;1789320;80;20951;-41
2022/09/15 05:35:55;;;;;;;13.13;7.90;;;;;;;16.03;73.57;98134.94;1789411;80;20987;-40
2022/09/15 05:38:22;;;;;;;9.00;6.77;;;;;;;16.03;73.54;98143.14;1789597;80;21059;-40
2022/09/15 05:40:49;;;;;;;9.60;6.58;;;;;;;16.03;73.64;98149.97;1789311;80;21030;-40
2022/09/15 05:43:17;;;;;;;8.73;7.45;;;;;;;16.07;73.59;98152.02;1789234;80;23156;-40
2022/09/15 05:45:44;;;;;;;12.82;7.37;;;;;;;16.11;73.60;98153.33;1789514;80;20987;-40
2022/09/15 05:48:11;;;;;;;10.10;7.55;;;;;;;16.09;73.68;98162.54;1769463;80;20966;-40
2022/09/15 05:50:38;;;;;;;10.35;7.35;;;;;;;16.05;73.75;98172.80;1789308;80;21026;-41
2022/09/15 05:53:06;;;;;;;11.85;7.20;;;;;;;16.04;73.78;98173.39;1784392;79;21030;-41
2022/09/15 05:55:37;;;;;;;9.60;7.60;;;;;;;16.09;73.87;98169.38;1789044;80;21109;-41
2022/09/15 05:58:04;;;;;;;10.45;7.83;;;;;;;16.17;73.98;98170.75;1788996;80;21525;-40
2022/09/15 06:00:31;;;;;;;9.60;7.50;;;;;;;16.23;73.99;98158.71;1788983;80;21002;-40
2022/09/15 06:02:59;;;;;;;9.40;7.60;;;;;;;16.28;73.93;98162.31;1784232;79;20980;-40
2022/09/15 06:05:27;;;;;;;11.45;7.80;;;;;;;16.37;73.80;98163.84;1789067;79;21079;-40
2022/09/15 06:07:55;;;;;;;16.07;7.90;;;;;;;16.44;73.26;98165.84;1789132;80;21876;-40
2022/09/15 06:10:23;;;;;;;6.67;5.75;;;;;;;16.45;73.30;98165.23;1789077;79;20955;-41
2022/09/15 06:12:54;;;;;;;9.28;8.30;;;;;;;16.47;73.47;98164.97;1788955;79;21050;-41
2022/09/15 06:15:22;;;;;;;10.68;7.20;;;;;;;16.47;73.48;98157.36;1789110;80;21018;-40
2022/09/15 06:17:49;;;;;;;10.98;6.83;;;;;;;16.51;73.40;98149.83;1789292;80;20962;-40
2022/09/15 06:20:17;;;;;;;11.48;7.72;;;;;;;16.58;73.15;98144.79;1789171;79;21214;-40
2022/09/15 06:22:44;;;;;;;10.30;7.78;;;;;;;16.53;73.10;98147.45;1789254;80;20959;-41
2022/09/15 06:25:12;;;;;;;13.88;8.00;;;;;;;16.45;73.38;98143.36;1789250;80;20985;-40
2022/09/15 06:27:40;;;;;;;9.18;6.90;;;;;;;16.41;73.78;98139.31;1789281;80;21481;-40
2022/09/15 06:30:09;;;;;;;9.20;6.33;;;;;;;16.48;74.00;98138.38;1789743;79;21042;-40
2022/09/15 06:32:36;;;;;;;9.38;7.30;;;;;;;16.53;73.93;98141.97;1789903;80;21077;-40
2022/09/15 06:35:07;;;;;;;12.45;8.03;;;;;;;16.55;73.85;98137.45;1789126;80;21002;-41
2022/09/15 06:37:34;;;;;;;14.25;8.20;;;;;;;16.51;74.02;98128.71;1789345;79;21793;-40
2022/09/15 06:40:03;;;;;;;11.63;7.85;;;;;;;16.48;74.25;98128.21;1789235;80;21069;-40
2022/09/15 06:42:30;;;;;;;8.55;7.20;;;;;;;16.54;74.49;98127.10;1789052;80;21533;-40
2022/09/15 06:44:57;;;;;;;10.43;7.70;;;;;;;16.61;73.93;98133.01;1788960;80;21077;-40
2022/09/15 06:47:24;;;;;;;10.15;6.97;;;;;;;16.59;73.94;98123.11;1788983;79;20907;-40
2022/09/15 06:49:53;;;;;;;10.35;8.28;;;;;;;16.56;74.03;98122.55;1788986;80;20955;-40
2022/09/15 06:52:20;;;;;;;11.88;7.37;;;;;;;16.57;74.42;98115.29;1789161;79;21516;-40
2022/09/15 06:54:47;;;;;;;12.82;6.90;;;;;;;16.65;74.68;98122.17;1785911;79;20988;-40
2022/09/15 06:57:13;;;;;;;9.85;7.87;;;;;;;16.75;74.68;98116.25;1785767;80;21117;-40
2022/09/15 06:59:41;;;;;;;13.72;7.97;;;;;;;16.84;74.74;98113.07;1785845;79;20983;-40
2022/09/15 07:02:08;;;;;;;13.13;7.65;;;;;;;16.95;74.79;98113.53;1780955;80;21007;-40
2022/09/15 07:04:36;;;;;;;13.60;7.47;;;;;;;17.04;74.70;98108.06;1785665;79;21012;-40
2022/09/15 07:07:02;;;;;;;11.65;7.50;;;;;;;17.15;74.17;98111.25;1786021;79;21596;-40
2022/09/15 07:09:29;;;;;;;12.53;7.85;;;;;;;17.23;73.57;98111.25;1785748;79;21131;-40
2022/09/15 07:11:56;;;;;;;12.90;8.23;;;;;;;17.23;73.64;98116.72;1785701;79;21019;-40
2022/09/15 07:14:22;;;;;;;13.00;7.85;;;;;;;17.24;73.69;98115.50;1785747;79;21028;-40
2022/09/15 07:16:49;;;;;;;13.85;8.05;;;;;;;17.26;73.75;98109.00;1785749;80;21011;-40
2022/09/15 07:19:16;;;;;;;9.08;7.55;;;;;;;17.26;73.37;98108.41;1786070;80;21031;-40
2022/09/15 07:21:42;;;;;;;9.53;7.78;;;;;;;17.33;73.32;98111.55;1785944;80;21164;-40
2022/09/15 07:24:09;;;;;;;14.33;8.55;;;;;;;17.37;73.42;98108.11;1785774;80;21508;-40
2022/09/15 07:26:37;;;;;;;10.03;8.50;;;;;;;17.44;73.40;98114.73;1785886;79;21023;-40
2022/09/15 07:29:05;;;;;;;12.33;7.50;;;;;;;17.46;72.89;98108.23;1785979;80;21036;-40
2022/09/15 07:31:34;;;;;;;7.87;7.08;;;;;;;17.51;72.75;98104.95;1786268;79;21011;-40
2022/09/15 07:34:02;;;;;;;;;;;;;;;17.57;72.93;98102.45;1788510;79;21008;-40
2022/09/15 07:36:29;;;;;;;13.93;7.30;;;;;;;17.62;72.61;98109.53;1785597;79;20172;-40
2022/09/15 07:38:56;;;;;;;9.55;7.85;;;;;;;17.51;72.81;98111.80;1785596;80;21016;-40
2022/09/15 07:41:26;;;;;;;8.48;7.30;;;;;;;17.48;72.65;98098.95;1785564;80;21031;-40
2022/09/15 07:43:55;;;;;;;8.88;7.05;;;;;;;17.44;72.55;98101.03;1785665;80;21899;-40
2022/09/15 07:46:24;;;;;;;9.55;7.33;;;;;;;17.45;72.71;98105.92;1786003;80;21784;-41
2022/09/15 07:48:55;;;;;;;9.65;7.65;;;;;;;17.44;72.62;98111.22;1785754;80;20976;-40
2022/09/15 07:51:21;;;;;;;;;;;;;;;17.38;73.02;98107.66;1788633;80;20992;-40
2022/09/15 07:53:48;;;;;;;9.63;7.17;;;;;;;17.33;72.86;98103.33;1785640;79;20170;-41
2022/09/15 07:56:19;;;;;;;9.90;6.92;;;;;;;17.16;73.51;98107.32;1785721;80;20993;-40
2022/09/15 07:58:46;;;;;;;13.32;8.10;;;;;;;16.89;73.64;98063.88;1785760;80;21123;-41
2022/09/15 08:01:14;;;;;;;8.58;7.37;;;;;;;17.24;73.99;98103.17;1786034;80;21032;-40
2022/09/15 08:03:47;;;;;;;10.82;7.90;;;;;;;17.27;74.07;98103.09;1785725;80;21036;-41
2022/09/15 08:06:15;;;;;;;8.33;7.15;;;;;;;17.32;74.19;98096.31;1786054;80;20991;-40
2022/09/15 08:08:44;;;;;;;10.32;7.05;;;;;;;17.41;74.19;98102.52;1785756;80;21071;-40
2022/09/15 08:11:18;;;;;;;13.25;8.05;;;;;;;17.53;73.88;98097.05;1785832;79;21124;-40
2022/09/15 08:13:48;;;;;;;9.25;8.10;;;;;;;17.58;73.84;98096.51;1785639;80;21055;-41
2022/09/15 08:16:17;;;;;;;10.85;9.15;;;;;;;17.57;73.70;98102.45;1785682;80;21475;-41
2022/09/15 08:18:44;;;;;;;8.20;5.47;;;;;;;17.54;73.51;98105.44;1774895;79;20965;-41
2022/09/15 08:21:16;;;;;;;10.00;7.15;;;;;;;17.54;73.74;98105.44;1766360;81;20974;-41
2022/09/15 08:23:43;;;;;;;8.38;7.58;;;;;;;17.60;73.56;98102.96;1766537;81;21204;-41
2022/09/15 08:26:11;;;;;;;13.65;8.33;;;;;;;17.62;73.48;98105.42;1766534;81;21016;-40
2022/09/15 08:28:38;;;;;;;9.35;8.10;;;;;;;17.62;73.34;98100.56;1766233;81;21012;-41
2022/09/15 08:31:07;;;;;;;11.03;7.53;;;;;;;17.62;73.45;98092.34;1766245;81;21567;-41
2022/09/15 08:33:36;;;;;;;9.10;7.17;;;;;;;17.67;73.47;98089.80;1766264;81;20933;-40
2022/09/15 08:36:06;;;;;;;10.45;7.37;;;;;;;17.78;73.36;98088.89;1766397;81;21125;-41
2022/09/15 08:38:33;;;;;;;10.88;7.60;;;;;;;17.83;73.12;98087.58;1766094;81;21497;-40
2022/09/15 08:41:06;;;;;;;12.68;8.33;;;;;;;17.81;72.97;98091.38;1766091;81;21546;-40
2022/09/15 08:43:51;;;;;;;11.60;7.42;;;;;;;17.79;73.04;98086.32;1766360;81;21571;-40
2022/09/15 08:46:22;;;;;;;10.08;7.00;;;;;;;17.83;73.19;98090.91;1765970;81;21406;-40
2022/09/15 08:49:05;;;;;;;8.33;6.97;;;;;;;17.91;72.98;98087.51;1766356;81;21741;-40
2022/09/15 08:51:48;;;;;;;12.80;8.48;;;;;;;17.96;73.04;98090.33;1765994;81;20992;-41
2022/09/15 08:54:25;;;;;;;10.78;7.70;;;;;;;18.00;72.63;98088.24;1766031;80;20973;-40
2022/09/15 08:56:52;;;;;;;8.55;7.10;;;;;;;17.83;72.50;98062.90;1766230;81;21005;-41
2022/09/15 08:59:19;;;;;;;9.28;6.87;;;;;;;17.98;72.49;98079.67;1766309;81;20973;-41
2022/09/15 09:02:29;;;;;;;7.70;6.90;;;;;;;18.04;72.57;98078.70;1766278;81;21133;-40
2022/09/15 09:05:20;;;;;;;19.00;8.65;;;;;;;18.10;72.45;98081.05;1765662;81;21606;-40
2022/09/15 09:09:07;;;;;;;41.45;8.48;;;;;;;18.23;72.62;98072.80;1814795;79;22588;-40
2022/09/15 09:11:51;;;;;;;10.03;6.60;;;;;;;18.22;72.10;98080.86;1787941;80;21578;-41
2022/09/15 09:14:42;;;;;;;10.72;6.65;;;;;;;18.32;71.75;98072.13;1787591;80;21622;-40
2022/09/15 09:17:41;;;;;;;10.32;7.50;;;;;;;18.37;71.43;98072.33;1788074;80;20945;-41
2022/09/15 09:20:24;;;;;;;;;;;;;;;18.42;71.45;98075.13;1790613;80;20968;-40
2022/09/15 09:22:53;;;;;;;9.40;6.20;;;;;;;18.45;71.41;98066.77;1787881;80;20112;-41
2022/09/15 09:25:21;;;;;;;8.45;6.05;;;;;;;18.46;71.30;98069.67;1788072;80;21511;-40
2022/09/15 09:27:47;;;;;;;7.60;6.67;;;;;;;18.61;71.33;98066.64;1787990;80;21172;-41
2022/09/15 09:30:20;;;;;;;7.72;6.60;;;;;;;18.75;70.68;98061.87;1787848;80;20988;-41
2022/09/15 09:32:55;;;;;;;6.90;6.20;;;;;;;18.85;70.60;98065.63;1757248;80;20961;-41
2022/09/15 09:35:42;;;;;;;10.40;7.15;;;;;;;18.95;70.35;98065.85;1785637;80;21084;-41
2022/09/15 09:38:11;;;;;;;13.28;6.62;;;;;;;18.99;69.44;98067.09;1788062;80;20937;-40
2022/09/15 09:40:41;;;;;;;9.13;7.17;;;;;;;19.01;69.67;98066.05;1788295;80;21886;-40
2022/09/15 09:43:08;;;;;;;8.08;7.28;;;;;;;19.07;69.01;98071.14;1787737;80;21528;-40
2022/09/15 09:45:35;;;;;;;7.75;6.78;;;;;;;19.07;69.09;98075.26;1787786;80;21363;-41
2022/09/15 09:48:21;;;;;;;10.00;7.40;;;;;;;19.05;68.94;98082.56;1787677;80;21064;-41
2022/09/15 09:50:49;;;;;;;10.28;6.97;;;;;;;18.99;68.86;98076.10;1787944;80;21020;-41
2022/09/15 09:53:27;;;;;;;7.55;6.72;;;;;;;18.97;68.67;98072.28;1787870;80;21262;-41
2022/09/15 09:56:12;;;;;;;8.95;7.08;;;;;;;18.95;68.94;98076.06;1787800;80;21036;-41
2022/09/15 09:58:39;;;;;;;9.65;7.08;;;;;;;18.91;68.92;98081.70;1763163;80;21798;-40
2022/09/15 10:01:16;;;;;;;9.08;7.37;;;;;;;18.86;68.62;98082.86;1787712;80;21028;-41
2022/09/15 10:03:44;;;;;;;7.40;5.97;;;;;;;18.84;68.84;98072.92;1788188;80;21005;-41
2022/09/15 10:06:18;;;;;;;10.03;6.28;;;;;;;18.88;69.11;98074.96;1788048;80;21253;-40
2022/09/15 10:09:05;;;;;;;12.28;6.62;;;;;;;18.98;69.01;98071.05;1770205;80;20988;-41
2022/09/15 10:11:42;;;;;;;15.45;7.28;;;;;;;19.02;68.25;98074.45;1773335;80;21024;-40
2022/09/15 10:14:38;;;;;;;9.13;7.10;;;;;;;18.99;67.86;98069.84;1774146;80;21021;-41
2022/09/15 10:17:13;;;;;;;8.85;6.87;;;;;;;18.94;67.72;98065.69;1774222;80;21067;-41
2022/09/15 10:19:57;;;;;;;6.75;5.70;;;;;;;18.86;68.08;98064.41;1773819;80;21204;-41
2022/09/15 10:22:38;;;;;;;6.55;5.70;;;;;;;18.85;68.55;98066.22;1773695;80;21020;-41
2022/09/15 10:25:25;;;;;;;7.72;6.25;;;;;;;18.94;68.45;98069.03;1774024;80;21079;-41
2022/09/15 10:28:13;;;;;;;8.63;6.12;;;;;;;18.93;68.24;98066.89;1773666;80;21010;-41
2022/09/15 10:31:06;;;;;;;10.35;6.45;;;;;;;18.94;68.50;98066.29;1773921;80;21009;-41
2022/09/15 10:33:38;;;;;;;8.23;5.70;;;;;;;18.93;68.29;98060.03;1773640;80;21173;-41
2022/09/15 10:36:23;;;;;;;7.42;5.03;;;;;;;18.97;68.20;98059.92;1773809;80;20998;-41
2022/09/15 10:39:10;;;;;;;7.22;5.30;;;;;;;19.04;67.93;98053.55;1772881;80;21523;-41
2022/09/15 10:41:45;;;;;;;6.00;5.40;;;;;;;19.02;67.91;98047.76;1773516;80;21348;-41
2022/09/15 10:44:32;;;;;;;7.00;6.30;;;;;;;18.99;68.39;98060.23;1772907;80;21080;-41
2022/09/15 10:47:29;;;;;;;9.03;5.40;;;;;;;18.99;68.53;98057.48;1761767;80;21713;-41
2022/09/15 10:50:18;;;;;;;6.50;5.08;;;;;;;19.04;68.34;98054.16;1773682;80;21008;-40
2022/09/15 10:52:56;;;;;;;5.72;5.17;;;;;;;19.07;68.26;98053.28;1774211;80;20973;-41
2022/09/15 10:55:37;;;;;;;6.55;5.47;;;;;;;19.07;68.56;98054.02;1773363;80;21056;-41
2022/09/15 10:58:15;;;;;;;6.12;5.20;;;;;;;19.08;68.66;98053.42;1773878;80;21049;-41
2022/09/15 11:01:12;;;;;;;7.33;4.90;;;;;;;19.10;68.80;98048.26;1772890;80;21142;-41
2022/09/15 11:03:59;;;;;;;5.83;4.83;;;;;;;19.17;68.37;98045.23;1773816;80;21000;-41
2022/09/15 11:06:51;;;;;;;7.72;4.53;;;;;;;19.22;68.38;98040.53;1773532;80;21000;-41
2022/09/15 11:09:34;;;;;;;6.15;4.80;;;;;;;19.23;68.39;98047.56;1781530;80;21354;-41
2022/09/15 11:12:24;;;;;;;6.67;4.58;;;;;;;19.19;68.06;98040.07;1781879;80;20921;-41
2022/09/15 11:15:22;;;;;;;4.83;3.95;;;;;;;19.13;68.22;98045.20;1781502;80;23130;-41
2022/09/15 11:18:14;;;;;;;6.05;4.50;;;;;;;19.13;68.49;98039.11;1781990;80;21571;-41
2022/09/15 11:20:55;;;;;;;5.42;4.70;;;;;;;19.19;68.64;98039.30;1781257;80;21063;-41
2022/09/15 11:24:01;;;;;;;7.03;4.90;;;;;;;19.21;68.64;98032.16;1782001;80;21016;-41
2022/09/15 11:26:36;;;;;;;5.47;4.95;;;;;;;19.20;68.91;98031.22;1781999;80;21515;-41
2022/09/15 11:29:14;;;;;;;7.10;4.70;;;;;;;19.15;69.00;98028.45;1781302;80;21351;-41
2022/09/15 11:31:42;;;;;;;8.33;4.28;;;;;;;19.17;69.53;98020.51;1781532;80;21043;-40
2022/09/15 11:34:35;;;;;;;6.83;4.33;;;;;;;19.22;69.20;98015.80;1781880;80;21029;-41
2022/09/15 11:37:20;;;;;;;4.42;4.03;;;;;;;19.17;69.31;98017.02;1781980;80;21519;-41
2022/09/15 11:39:59;;;;;;;4.80;4.08;;;;;;;19.15;69.63;98010.59;1766319;80;21491;-41
2022/09/15 11:43:00;;;;;;;3.85;3.37;;;;;;;19.13;69.50;98004.00;1781795;80;21246;-41
2022/09/15 11:45:31;;;;;;;4.55;3.80;;;;;;;19.16;69.71;98002.52;1781990;80;21503;-41
2022/09/15 11:48:15;;;;;;;4.55;4.12;;;;;;;19.23;69.78;98002.23;1781663;80;21065;-40
2022/09/15 11:50:44;;;;;;;5.75;3.85;;;;;;;19.25;69.35;98010.80;1764265;80;21084;-41
2022/09/15 11:53:29;;;;;;;6.37;4.87;;;;;;;19.20;69.67;98005.89;1782154;80;21005;-41
2022/09/15 11:56:02;;;;;;;5.90;4.60;;;;;;;19.20;69.58;98010.61;1781943;80;21204;-41